Airport View

Enter AWOS ICAO identifier for current METAR.

ex. KFNL

KARG 191756Z AUTO 21012KT 10SM CLR 29/24 A2971 RMK AO2 LTG DSNT NE AND E RAB07E28 SLP060 P0015 60015 T02940239 10306 20233 56019

19 Jun 2019 18:54

Frequency: 135.925

Phone: 870-886-2537

Other Area AWOS: K4M9 - KJBR - KM19 - KBVX

TAF KJBR 191726Z 1918/2018 21010G18KT P6SM VCTS BKN040CB OVC120 TEMPO 1923/2003 4SM TSRA OVC025CB FM200600 25008KT P6SM BKN100 FM201100 26008KT P6SM SCT150